Time;durP1;ratioP1;P1;durP2;ratioP2;P2;SDS_P1;SDS_P2;PMS_P1;PMS_P2;Temp;Humidity;BMP_temperature;BMP_pressure;BME280_temperature;BME280_humidity;BME280_pressure;Samples;Min_cycle;Max_cycle;Signal;HPM_P1;HPM_P2
2022/10/23 00:01:50;;;;;;;12.05;3.80;;;;;;;;;;4984328;28;20290;-67
2022/10/23 00:04:19;;;;;;;10.25;3.25;;;;;;;;;;4976091;28;20081;-67
2022/10/23 00:06:45;;;;;;;11.48;3.92;;;;;;;;;;4972468;28;20023;-67
2022/10/23 00:09:11;;;;;;;12.88;3.80;;;;;;;;;;4977236;28;20038;-68
2022/10/23 00:11:37;;;;;;;12.90;3.20;;;;;;;;;;4978387;28;20033;-67
2022/10/23 00:14:03;;;;;;;15.25;3.65;;;;;;;;;;4976730;28;20015;-67
2022/10/23 00:16:29;;;;;;;16.90;3.67;;;;;;;;;;5000011;28;20498;-67
2022/10/23 00:18:54;;;;;;;13.07;3.13;;;;;;;;;;5007426;28;20021;-67
2022/10/23 00:21:20;;;;;;;6.10;2.97;;;;;;;;;;5010306;28;20398;-67
2022/10/23 00:23:45;;;;;;;14.20;3.35;;;;;;;;;;5006257;28;20032;-66
2022/10/23 00:26:14;;;;;;;18.87;3.87;;;;;;;;;;5012496;28;20440;-68
2022/10/23 00:28:39;;;;;;;15.85;3.20;;;;;;;;;;5005850;28;20285;-67
2022/10/23 00:31:05;;;;;;;20.43;3.60;;;;;;;;;;5012926;28;20022;-67
2022/10/23 00:33:30;;;;;;;15.50;3.13;;;;;;;;;;5005931;28;20272;-67
2022/10/23 00:35:56;;;;;;;16.13;4.38;;;;;;;;;;5006025;28;20101;-67
2022/10/23 00:38:21;;;;;;;11.27;3.03;;;;;;;;;;5005857;28;20371;-67
2022/10/23 00:40:46;;;;;;;15.77;3.60;;;;;;;;;;5006636;28;20022;-67
2022/10/23 00:43:18;;;;;;;12.50;3.22;;;;;;;;;;5005182;28;20034;-67
2022/10/23 00:45:43;;;;;;;21.77;3.63;;;;;;;;;;5012685;28;20045;-64
2022/10/23 00:48:08;;;;;;;10.60;3.00;;;;;;;;;;5002269;28;20503;-67
2022/10/23 00:50:34;;;;;;;12.83;2.93;;;;;;;;;;5010190;28;20292;-67
2022/10/23 00:53:00;;;;;;;13.88;3.50;;;;;;;;;;5002106;28;20415;-67
2022/10/23 00:55:26;;;;;;;16.83;2.75;;;;;;;;;;5002766;28;20064;-67
2022/10/23 00:57:52;;;;;;;11.70;3.35;;;;;;;;;;5003520;28;20010;-67
2022/10/23 01:00:20;;;;;;;11.75;2.78;;;;;;;;;;4999185;28;20497;-67
2022/10/23 01:02:46;;;;;;;6.72;2.63;;;;;;;;;;5024671;28;20474;-68
2022/10/23 01:05:11;;;;;;;7.85;2.97;;;;;;;;;;5009457;28;20120;-66
2022/10/23 01:07:53;;;;;;;8.85;2.72;;;;;;;;;;5003621;28;20630;-67
2022/10/23 01:10:18;;;;;;;12.45;2.58;;;;;;;;;;5007324;28;20030;-67
2022/10/23 01:12:43;;;;;;;14.27;2.90;;;;;;;;;;5002934;28;20490;-66
2022/10/23 01:15:20;;;;;;;21.90;3.53;;;;;;;;;;5006349;28;20278;-67
2022/10/23 01:17:46;;;;;;;11.65;2.47;;;;;;;;;;5004729;28;20025;-66
2022/10/23 01:20:17;;;;;;;15.48;2.67;;;;;;;;;;5005514;28;20105;-66
2022/10/23 01:22:51;;;;;;;20.38;3.00;;;;;;;;;;5003566;28;20040;-66
2022/10/23 01:25:22;;;;;;;19.27;3.17;;;;;;;;;;5006256;28;20045;-66
2022/10/23 01:27:49;;;;;;;17.30;3.25;;;;;;;;;;5001756;28;20508;-67
2022/10/23 01:30:15;;;;;;;11.93;2.45;;;;;;;;;;5010097;28;20072;-67
2022/10/23 01:32:43;;;;;;;22.10;3.70;;;;;;;;;;5004761;28;20029;-65
2022/10/23 01:35:21;;;;;;;18.67;2.53;;;;;;;;;;5003084;28;20072;-66
2022/10/23 01:37:51;;;;;;;8.65;2.38;;;;;;;;;;5000147;28;20026;-67
2022/10/23 01:40:29;;;;;;;13.65;2.70;;;;;;;;;;5009674;28;20026;-68
2022/10/23 01:42:57;;;;;;;10.05;2.60;;;;;;;;;;5004633;28;20136;-67
2022/10/23 01:45:26;;;;;;;6.65;2.08;;;;;;;;;;5008969;28;20077;-67
2022/10/23 01:47:52;;;;;;;15.00;2.35;;;;;;;;;;5004543;28;20486;-67
2022/10/23 01:50:18;;;;;;;14.48;2.75;;;;;;;;;;5018496;28;20026;-67
2022/10/23 01:52:44;;;;;;;14.75;2.50;;;;;;;;;;5005034;28;20030;-68
2022/10/23 01:55:10;;;;;;;11.88;1.92;;;;;;;;;;5004032;28;20033;-68
2022/10/23 01:57:36;;;;;;;19.98;2.80;;;;;;;;;;5004364;28;20025;-67
2022/10/23 02:00:06;;;;;;;20.95;2.05;;;;;;;;;;5000209;28;20022;-67
2022/10/23 02:02:32;;;;;;;12.43;2.55;;;;;;;;;;5003987;28;20059;-67
2022/10/23 02:05:03;;;;;;;9.98;3.72;;;;;;;;;;5001530;28;20033;-67
2022/10/23 02:07:29;;;;;;;8.70;2.30;;;;;;;;;;4997791;28;20062;-66
2022/10/23 02:09:54;;;;;;;12.07;3.10;;;;;;;;;;5006865;28;20072;-67
2022/10/23 02:12:25;;;;;;;19.63;2.45;;;;;;;;;;4999071;28;20026;-66
2022/10/23 02:14:59;;;;;;;5.00;2.03;;;;;;;;;;5000042;28;20036;-68
2022/10/23 02:17:35;;;;;;;9.98;2.22;;;;;;;;;;5002102;28;20027;-67
2022/10/23 02:20:21;;;;;;;13.43;2.78;;;;;;;;;;5002446;28;20018;-66
2022/10/23 02:22:52;;;;;;;16.20;2.75;;;;;;;;;;5003337;28;20041;-67
2022/10/23 02:25:19;;;;;;;10.90;2.55;;;;;;;;;;5000890;28;20018;-66
2022/10/23 02:27:46;;;;;;;7.80;2.42;;;;;;;;;;4996417;28;20018;-67
2022/10/23 02:30:13;;;;;;;19.13;3.00;;;;;;;;;;5002962;28;20025;-67
2022/10/23 02:32:40;;;;;;;11.40;3.10;;;;;;;;;;5000379;28;20025;-67
2022/10/23 02:35:06;;;;;;;8.07;2.65;;;;;;;;;;5002333;28;20036;-67
2022/10/23 02:37:31;;;;;;;6.60;2.22;;;;;;;;;;5000854;28;20023;-66
2022/10/23 02:39:57;;;;;;;11.45;2.67;;;;;;;;;;4999893;28;20036;-67
2022/10/23 02:42:22;;;;;;;12.77;2.60;;;;;;;;;;4997385;28;20041;-66
2022/10/23 02:45:06;;;;;;;12.98;2.47;;;;;;;;;;4999228;28;20033;-67
2022/10/23 02:47:31;;;;;;;5.85;2.22;;;;;;;;;;4997507;28;20030;-67
2022/10/23 02:49:56;;;;;;;6.33;2.30;;;;;;;;;;5006064;28;20018;-67
2022/10/23 02:52:32;;;;;;;11.73;2.20;;;;;;;;;;5003392;28;20277;-67
2022/10/23 02:55:06;;;;;;;11.70;2.78;;;;;;;;;;4996214;28;20034;-67
2022/10/23 02:57:33;;;;;;;6.55;2.40;;;;;;;;;;4991970;28;20026;-68
2022/10/23 03:00:00;;;;;;;8.10;2.58;;;;;;;;;;4985097;28;20022;-67
2022/10/23 03:02:41;;;;;;;21.17;2.58;;;;;;;;;;4995282;28;20022;-67
2022/10/23 03:05:08;;;;;;;19.70;2.58;;;;;;;;;;4999149;28;20030;-67
2022/10/23 03:07:34;;;;;;;12.23;2.45;;;;;;;;;;4998795;28;20034;-67
2022/10/23 03:09:59;;;;;;;14.32;2.63;;;;;;;;;;5001575;28;20033;-65
2022/10/23 03:12:24;;;;;;;10.43;2.67;;;;;;;;;;4998771;28;20029;-67
2022/10/23 03:14:49;;;;;;;8.27;2.17;;;;;;;;;;4991049;28;20735;-67
2022/10/23 03:17:15;;;;;;;12.77;3.10;;;;;;;;;;4991323;28;20027;-67
2022/10/23 03:19:40;;;;;;;7.97;2.37;;;;;;;;;;4991322;28;20503;-67
2022/10/23 03:22:05;;;;;;;8.80;2.60;;;;;;;;;;4991213;28;20328;-66
2022/10/23 03:24:30;;;;;;;12.57;2.45;;;;;;;;;;4989757;28;20360;-67
2022/10/23 03:26:55;;;;;;;9.40;2.27;;;;;;;;;;4991138;28;20062;-67
2022/10/23 03:29:20;;;;;;;19.77;2.70;;;;;;;;;;4990401;28;20324;-67
2022/10/23 03:31:46;;;;;;;7.00;2.00;;;;;;;;;;4990963;28;20264;-67
2022/10/23 03:34:12;;;;;;;13.23;2.83;;;;;;;;;;4990683;28;20022;-67
2022/10/23 03:36:37;;;;;;;5.22;2.00;;;;;;;;;;4990808;28;20341;-67
2022/10/23 03:39:03;;;;;;;15.93;2.67;;;;;;;;;;4990933;28;20102;-68
2022/10/23 03:41:28;;;;;;;7.28;2.17;;;;;;;;;;4990637;28;20030;-67
2022/10/23 03:43:53;;;;;;;17.35;2.63;;;;;;;;;;4994963;28;20030;-67
2022/10/23 03:46:18;;;;;;;12.40;1.80;;;;;;;;;;5000582;28;20379;-67
2022/10/23 03:48:43;;;;;;;8.47;2.70;;;;;;;;;;4995635;28;20281;-67
2022/10/23 03:51:09;;;;;;;21.23;2.27;;;;;;;;;;5003652;28;20336;-67
2022/10/23 03:53:34;;;;;;;26.65;9.38;;;;;;;;;;5004708;28;20284;-66
2022/10/23 03:55:59;;;;;;;11.97;4.33;;;;;;;;;;5001681;28;20025;-67
2022/10/23 03:58:24;;;;;;;14.30;4.32;;;;;;;;;;5000047;28;20348;-67
2022/10/23 04:00:50;;;;;;;12.30;2.23;;;;;;;;;;4998804;28;20089;-67
2022/10/23 04:03:15;;;;;;;15.93;3.10;;;;;;;;;;5001801;28;20796;-67
2022/10/23 04:05:40;;;;;;;9.53;2.13;;;;;;;;;;5006611;28;20276;-67
2022/10/23 04:08:05;;;;;;;10.38;2.38;;;;;;;;;;4998746;28;20800;-67
2022/10/23 04:10:31;;;;;;;24.73;9.05;;;;;;;;;;4997150;28;20368;-65
2022/10/23 04:12:56;;;;;;;18.08;5.40;;;;;;;;;;5005451;28;20527;-64
2022/10/23 04:15:21;;;;;;;18.43;3.87;;;;;;;;;;4993762;28;20376;-66
2022/10/23 04:17:46;;;;;;;11.73;4.17;;;;;;;;;;4996454;28;20278;-67
2022/10/23 04:20:11;;;;;;;9.85;4.05;;;;;;;;;;5002711;28;20265;-66
2022/10/23 04:22:37;;;;;;;12.50;4.60;;;;;;;;;;4991667;28;20100;-67
2022/10/23 04:25:02;;;;;;;17.60;5.97;;;;;;;;;;5004843;28;20257;-67
2022/10/23 04:27:27;;;;;;;15.60;6.05;;;;;;;;;;5009886;28;20291;-67
2022/10/23 04:29:52;;;;;;;14.00;4.95;;;;;;;;;;5004246;28;20034;-68
2022/10/23 04:32:17;;;;;;;14.48;4.43;;;;;;;;;;5006822;28;20113;-66
2022/10/23 04:34:43;;;;;;;24.10;4.07;;;;;;;;;;4998971;28;20046;-67
2022/10/23 04:37:08;;;;;;;18.27;4.90;;;;;;;;;;4990891;28;20285;-67
2022/10/23 04:39:33;;;;;;;16.85;4.25;;;;;;;;;;4998108;28;20323;-67
2022/10/23 04:41:58;;;;;;;15.27;4.25;;;;;;;;;;4993027;28;20034;-67
2022/10/23 04:44:24;;;;;;;9.47;3.50;;;;;;;;;;5004928;28;20037;-68
2022/10/23 04:46:49;;;;;;;7.63;2.97;;;;;;;;;;5001574;28;20328;-67
2022/10/23 04:49:14;;;;;;;10.87;2.77;;;;;;;;;;5003679;28;20765;-66
2022/10/23 04:51:39;;;;;;;5.80;2.30;;;;;;;;;;5001721;28;20363;-67
2022/10/23 04:54:04;;;;;;;8.85;3.35;;;;;;;;;;5003647;28;20665;-67
2022/10/23 04:56:29;;;;;;;8.03;2.53;;;;;;;;;;4979525;28;20454;-67
2022/10/23 04:58:55;;;;;;;7.95;1.98;;;;;;;;;;5003220;28;20316;-68
2022/10/23 05:01:20;;;;;;;9.55;2.90;;;;;;;;;;4997000;28;20446;-70
2022/10/23 05:03:45;;;;;;;8.77;4.10;;;;;;;;;;4999364;28;20046;-67
2022/10/23 05:06:10;;;;;;;13.52;3.00;;;;;;;;;;5008253;28;20272;-66
2022/10/23 05:08:36;;;;;;;13.67;3.03;;;;;;;;;;4998131;28;20029;-68
2022/10/23 05:11:01;;;;;;;10.23;2.17;;;;;;;;;;5006964;28;20660;-65
2022/10/23 05:13:26;;;;;;;12.18;2.15;;;;;;;;;;5000175;28;20030;-68
2022/10/23 05:15:51;;;;;;;9.40;1.73;;;;;;;;;;5000125;28;20018;-67
2022/10/23 05:18:21;;;;;;;6.95;2.47;;;;;;;;;;4999312;28;20273;-67
2022/10/23 05:20:48;;;;;;;20.75;2.10;;;;;;;;;;5035438;23;20045;-67
2022/10/23 05:23:14;;;;;;;4.72;2.08;;;;;;;;;;5021439;28;20104;-69
2022/10/23 05:25:40;;;;;;;3.97;1.60;;;;;;;;;;5017169;28;20018;-68
2022/10/23 05:28:05;;;;;;;15.63;2.57;;;;;;;;;;5021317;28;20398;-67
2022/10/23 05:30:31;;;;;;;9.43;1.63;;;;;;;;;;5028519;28;20312;-67
2022/10/23 05:32:58;;;;;;;13.45;1.85;;;;;;;;;;5030419;28;20017;-68
2022/10/23 05:35:23;;;;;;;10.55;1.98;;;;;;;;;;5029484;28;20062;-67
2022/10/23 05:37:49;;;;;;;9.55;1.80;;;;;;;;;;5029975;28;20428;-67
2022/10/23 05:40:15;;;;;;;7.00;1.77;;;;;;;;;;5030932;28;20500;-69
2022/10/23 05:42:40;;;;;;;10.02;1.60;;;;;;;;;;5030052;28;20033;-67
2022/10/23 05:45:06;;;;;;;12.90;2.13;;;;;;;;;;5030013;28;20031;-67
2022/10/23 05:47:31;;;;;;;7.10;1.90;;;;;;;;;;5029788;28;20218;-70
2022/10/23 05:49:56;;;;;;;9.80;1.83;;;;;;;;;;5029482;28;20022;-68
2022/10/23 05:52:21;;;;;;;7.77;1.67;;;;;;;;;;5029800;28;20272;-69
2022/10/23 05:54:47;;;;;;;12.73;2.05;;;;;;;;;;5027283;28;20266;-67
2022/10/23 05:57:12;;;;;;;6.83;2.20;;;;;;;;;;5030856;28;20021;-68
2022/10/23 05:59:37;;;;;;;6.38;1.70;;;;;;;;;;5030191;28;20351;-67
2022/10/23 06:02:02;;;;;;;9.10;1.87;;;;;;;;;;5028804;28;20034;-67
2022/10/23 06:04:27;;;;;;;6.13;1.52;;;;;;;;;;5035689;28;21002;-68
2022/10/23 06:06:53;;;;;;;7.85;2.10;;;;;;;;;;5038244;28;20029;-69
2022/10/23 06:09:18;;;;;;;8.70;2.60;;;;;;;;;;5032582;28;20029;-66
2022/10/23 06:11:43;;;;;;;24.42;3.40;;;;;;;;;;5032896;28;20734;-67
2022/10/23 06:14:08;;;;;;;8.00;2.03;;;;;;;;;;5031883;28;20051;-68
2022/10/23 06:16:33;;;;;;;5.25;1.85;;;;;;;;;;5031379;28;20260;-67
2022/10/23 06:18:59;;;;;;;8.57;2.10;;;;;;;;;;5026629;28;112873;-67
2022/10/23 06:21:24;;;;;;;12.57;2.05;;;;;;;;;;5049786;28;20252;-67
2022/10/23 06:23:49;;;;;;;11.57;2.35;;;;;;;;;;5032497;28;20049;-68
2022/10/23 06:26:15;;;;;;;16.00;1.80;;;;;;;;;;5031222;28;20453;-67
2022/10/23 06:28:41;;;;;;;6.55;1.90;;;;;;;;;;5033798;28;20322;-67
2022/10/23 06:31:06;;;;;;;7.22;1.88;;;;;;;;;;5034546;28;20393;-69
2022/10/23 06:33:32;;;;;;;7.43;1.88;;;;;;;;;;5031769;28;20021;-67
2022/10/23 06:35:57;;;;;;;14.57;2.13;;;;;;;;;;5030162;28;20025;-67
2022/10/23 06:38:22;;;;;;;9.80;1.93;;;;;;;;;;5028981;28;20029;-68
2022/10/23 06:40:53;;;;;;;5.95;2.30;;;;;;;;;;5031039;28;20805;-70
2022/10/23 06:43:18;;;;;;;;;;;;;;;;;;5030224;28;20013;-68
2022/10/23 06:45:43;;;;;;;15.57;2.47;;;;;;;;;;5036233;28;19909;-67
2022/10/23 06:48:08;;;;;;;21.77;3.50;;;;;;;;;;5029549;28;20424;-67
2022/10/23 06:50:35;;;;;;;6.72;1.77;;;;;;;;;;5034526;28;20338;-67
2022/10/23 06:53:00;;;;;;;12.63;1.92;;;;;;;;;;5031079;28;20445;-70
2022/10/23 06:55:25;;;;;;;10.00;1.70;;;;;;;;;;5030421;28;20056;-67
2022/10/23 06:57:50;;;;;;;3.83;1.13;;;;;;;;;;5032843;28;20264;-70
2022/10/23 07:00:16;;;;;;;14.95;1.65;;;;;;;;;;5026306;28;20280;-70
2022/10/23 07:02:41;;;;;;;18.70;3.35;;;;;;;;;;5026067;28;20029;-68
2022/10/23 07:05:06;;;;;;;6.28;1.63;;;;;;;;;;5026438;28;20040;-69
2022/10/23 07:07:31;;;;;;;21.75;2.75;;;;;;;;;;5027243;28;20025;-72
2022/10/23 07:09:57;;;;;;;5.38;2.80;;;;;;;;;;5028508;28;20086;-70
2022/10/23 07:12:22;;;;;;;9.43;1.80;;;;;;;;;;5044569;28;20052;-69
2022/10/23 07:14:47;;;;;;;8.88;1.52;;;;;;;;;;5030077;28;20773;-67
2022/10/23 07:17:12;;;;;;;9.10;1.63;;;;;;;;;;5029423;28;20025;-67
2022/10/23 07:19:38;;;;;;;11.40;1.70;;;;;;;;;;5026143;28;20350;-67
2022/10/23 07:22:03;;;;;;;3.47;1.40;;;;;;;;;;5029455;28;20355;-67
2022/10/23 07:24:30;;;;;;;6.43;1.70;;;;;;;;;;5027936;28;20282;-67
2022/10/23 07:26:55;;;;;;;10.07;1.45;;;;;;;;;;5028903;28;20346;-67
2022/10/23 07:29:20;;;;;;;9.13;2.03;;;;;;;;;;5029048;28;20096;-67
2022/10/23 07:31:45;;;;;;;11.23;2.13;;;;;;;;;;5030272;28;20037;-71
2022/10/23 07:34:11;;;;;;;6.50;3.03;;;;;;;;;;5030116;28;20442;-67
2022/10/23 07:36:36;;;;;;;10.83;1.87;;;;;;;;;;5029968;28;20013;-70
2022/10/23 07:39:01;;;;;;;8.77;1.77;;;;;;;;;;5030176;28;20425;-67
2022/10/23 07:41:26;;;;;;;5.15;1.55;;;;;;;;;;5028106;28;20291;-70
2022/10/23 07:43:51;;;;;;;5.80;1.67;;;;;;;;;;5029052;28;20025;-67
2022/10/23 07:46:17;;;;;;;15.23;2.87;;;;;;;;;;5030288;28;20296;-70
2022/10/23 07:48:42;;;;;;;8.70;1.87;;;;;;;;;;5028713;28;20279;-71
2022/10/23 07:51:09;;;;;;;11.97;1.67;;;;;;;;;;5028195;28;20345;-70
2022/10/23 07:53:35;;;;;;;23.27;4.38;;;;;;;;;;5029366;28;20275;-70
2022/10/23 07:56:02;;;;;;;33.30;4.03;;;;;;;;;;5029673;28;20025;-69
2022/10/23 07:58:28;;;;;;;6.22;1.40;;;;;;;;;;5030011;28;20097;-70
2022/10/23 08:00:54;;;;;;;7.13;1.80;;;;;;;;;;5030645;28;20026;-70
2022/10/23 08:03:20;;;;;;;15.52;1.67;;;;;;;;;;5027342;28;20493;-70
2022/10/23 08:05:45;;;;;;;6.03;1.50;;;;;;;;;;5030233;28;20025;-70
2022/10/23 08:08:10;;;;;;;2.17;0.73;;;;;;;;;;5029380;28;20497;-70
2022/10/23 08:10:35;;;;;;;7.78;1.20;;;;;;;;;;5029644;28;20072;-69
2022/10/23 08:13:01;;;;;;;6.95;1.27;;;;;;;;;;5028811;28;20021;-69
2022/10/23 08:15:26;;;;;;;2.90;1.20;;;;;;;;;;5029090;28;20028;-69
2022/10/23 08:17:51;;;;;;;7.18;1.70;;;;;;;;;;5030818;28;20024;-69
2022/10/23 08:20:16;;;;;;;6.33;2.30;;;;;;;;;;5029237;28;20030;-70
2022/10/23 08:22:42;;;;;;;3.45;1.50;;;;;;;;;;5029183;28;20279;-69
2022/10/23 08:25:07;;;;;;;6.53;1.33;;;;;;;;;;5029705;28;20025;-69
2022/10/23 08:27:32;;;;;;;12.07;2.13;;;;;;;;;;5029807;28;20441;-70
2022/10/23 08:29:58;;;;;;;5.30;1.50;;;;;;;;;;5026732;28;20029;-69
2022/10/23 08:32:23;;;;;;;3.70;0.87;;;;;;;;;;5027545;28;20109;-69
2022/10/23 08:34:48;;;;;;;3.80;1.40;;;;;;;;;;5029037;28;20756;-70
2022/10/23 08:37:13;;;;;;;4.27;1.57;;;;;;;;;;5029214;28;20279;-69
2022/10/23 08:39:38;;;;;;;6.37;1.33;;;;;;;;;;5032508;28;20310;-69
2022/10/23 08:42:03;;;;;;;3.07;1.13;;;;;;;;;;5033892;28;20041;-69
2022/10/23 08:44:31;;;;;;;2.90;1.13;;;;;;;;;;5031110;28;20271;-70
2022/10/23 08:46:59;;;;;;;4.75;1.10;;;;;;;;;;5029074;28;20351;-70
2022/10/23 08:49:43;;;;;;;5.43;1.13;;;;;;;;;;5031587;28;20544;-68
2022/10/23 08:52:26;;;;;;;8.55;1.75;;;;;;;;;;5030833;28;20061;-68
2022/10/23 08:55:11;;;;;;;3.55;1.38;;;;;;;;;;5029874;28;20572;-69
2022/10/23 08:57:42;;;;;;;5.45;1.67;;;;;;;;;;5031097;28;20411;-69
2022/10/23 09:00:11;;;;;;;4.63;1.40;;;;;;;;;;5032221;28;20053;-70
2022/10/23 09:02:41;;;;;;;2.83;1.17;;;;;;;;;;5030930;28;20128;-70
2022/10/23 09:05:12;;;;;;;11.23;2.42;;;;;;;;;;5032038;28;20029;-70
2022/10/23 09:07:46;;;;;;;4.43;1.50;;;;;;;;;;5032339;28;20434;-70
2022/10/23 09:10:14;;;;;;;5.38;2.40;;;;;;;;;;5031421;28;20484;-70
2022/10/23 09:12:40;;;;;;;8.48;1.75;;;;;;;;;;5032608;28;20413;-69
2022/10/23 09:15:05;;;;;;;2.90;1.35;;;;;;;;;;5031786;28;20017;-70
2022/10/23 09:17:36;;;;;;;10.83;2.90;;;;;;;;;;5032073;28;20401;-70
2022/10/23 09:20:21;;;;;;;8.65;1.75;;;;;;;;;;5030563;28;20780;-70
2022/10/23 09:22:48;;;;;;;10.27;2.13;;;;;;;;;;5027471;28;20026;-69
2022/10/23 09:25:30;;;;;;;1.85;0.85;;;;;;;;;;5031853;28;20025;-68
2022/10/23 09:27:56;;;;;;;4.93;1.20;;;;;;;;;;5029669;28;20373;-70
2022/10/23 09:30:31;;;;;;;3.72;0.90;;;;;;;;;;5031040;28;20258;-70
2022/10/23 09:32:57;;;;;;;3.35;1.30;;;;;;;;;;5032909;28;20120;-70
2022/10/23 09:35:23;;;;;;;11.18;2.10;;;;;;;;;;5031759;28;20024;-69
2022/10/23 09:37:52;;;;;;;8.20;1.27;;;;;;;;;;5031074;28;20030;-70
2022/10/23 09:40:26;;;;;;;1.45;0.85;;;;;;;;;;5031982;28;20097;-70
2022/10/23 09:42:51;;;;;;;2.38;1.25;;;;;;;;;;5028298;28;20373;-68
2022/10/23 09:45:20;;;;;;;5.93;0.60;;;;;;;;;;5031727;28;20028;-69
2022/10/23 09:47:45;;;;;;;3.42;1.20;;;;;;;;;;5030594;28;20316;-71
2022/10/23 09:50:20;;;;;;;5.57;1.17;;;;;;;;;;5031066;28;20114;-68
2022/10/23 09:52:48;;;;;;;6.28;1.63;;;;;;;;;;5031180;28;20620;-69
2022/10/23 09:55:18;;;;;;;8.77;1.60;;;;;;;;;;5031653;28;20231;-69
2022/10/23 09:57:44;;;;;;;6.82;1.23;;;;;;;;;;5030488;28;20107;-69
2022/10/23 10:00:20;;;;;;;4.72;1.38;;;;;;;;;;5030722;28;20482;-69
2022/10/23 10:02:59;;;;;;;4.50;0.93;;;;;;;;;;5032397;28;20021;-69
2022/10/23 10:05:24;;;;;;;6.22;0.80;;;;;;;;;;5036954;28;20108;-68
2022/10/23 10:08:10;;;;;;;6.20;1.45;;;;;;;;;;5037012;28;20048;-69
2022/10/23 10:10:38;;;;;;;3.58;1.13;;;;;;;;;;5036022;28;20021;-69
2022/10/23 10:13:18;;;;;;;15.45;1.77;;;;;;;;;;5031646;28;20093;-69
2022/10/23 10:15:43;;;;;;;;;;;;;;;;;;5037706;28;20022;-69
2022/10/23 10:18:11;;;;;;;9.30;1.10;;;;;;;;;;5035034;28;19905;-69
2022/10/23 10:20:55;;;;;;;4.65;0.90;;;;;;;;;;5029812;28;20029;-69
2022/10/23 10:23:38;;;;;;;3.53;1.48;;;;;;;;;;5030524;28;20033;-69
2022/10/23 10:26:14;;;;;;;2.60;1.08;;;;;;;;;;5031599;28;20547;-69
2022/10/23 10:28:48;;;;;;;21.10;1.77;;;;;;;;;;5031071;28;20097;-68
2022/10/23 10:31:18;;;;;;;6.10;0.90;;;;;;;;;;5029704;28;20033;-68
2022/10/23 10:33:43;;;;;;;;;;;;;;;;;;5038905;28;20013;-68
2022/10/23 10:36:18;;;;;;;4.20;1.10;;;;;;;;;;5033743;28;19966;-69
2022/10/23 10:38:51;;;;;;;7.63;1.10;;;;;;;;;;5024355;28;20091;-69
2022/10/23 10:41:34;;;;;;;1.48;0.77;;;;;;;;;;5035225;28;20028;-69
2022/10/23 10:44:14;;;;;;;3.65;1.40;;;;;;;;;;5019837;28;20117;-69
2022/10/23 10:46:39;;;;;;;;;;;;;;;;;;5020707;28;20021;-70
2022/10/23 10:49:04;;;;;;;8.25;1.65;;;;;;;;;;5019711;28;19928;-69
2022/10/23 10:51:37;;;;;;;4.60;1.03;;;;;;;;;;5019517;28;20029;-69
2022/10/23 10:54:05;;;;;;;4.90;1.20;;;;;;;;;;5019318;28;20049;-66
2022/10/23 10:56:33;;;;;;;3.67;0.85;;;;;;;;;;5018951;28;20079;-67
2022/10/23 10:59:01;;;;;;;4.30;1.13;;;;;;;;;;5020290;28;20539;-69
2022/10/23 11:01:29;;;;;;;2.78;1.33;;;;;;;;;;5022096;28;20025;-70
2022/10/23 11:04:12;;;;;;;10.32;1.42;;;;;;;;;;5024159;28;20029;-69
2022/10/23 11:06:38;;;;;;;1.60;0.95;;;;;;;;;;5025629;28;20017;-68
2022/10/23 11:09:35;;;;;;;4.22;1.52;;;;;;;;;;5018161;28;20020;-68
2022/10/23 11:12:00;;;;;;;7.30;1.45;;;;;;;;;;5015108;28;20073;-69
2022/10/23 11:14:27;;;;;;;1.65;1.00;;;;;;;;;;5022366;28;20040;-68
2022/10/23 11:16:55;;;;;;;5.28;1.30;;;;;;;;;;5023028;28;20482;-68
2022/10/23 11:19:44;;;;;;;10.15;1.02;;;;;;;;;;5031429;23;20033;-84
2022/10/23 11:22:15;;;;;;;9.70;1.13;;;;;;;;;;5032423;28;20158;-82
2022/10/23 11:24:59;;;;;;;0.85;0.47;;;;;;;;;;5017058;28;20026;-83
2022/10/23 11:27:27;;;;;;;6.03;1.10;;;;;;;;;;5017844;28;20042;-87
2022/10/23 11:30:15;;;;;;;8.30;1.77;;;;;;;;;;5012508;28;20022;-84
2022/10/23 11:32:49;;;;;;;3.72;1.13;;;;;;;;;;4999848;28;20121;-87
2022/10/23 11:35:17;;;;;;;2.88;1.35;;;;;;;;;;5018392;28;20019;-84
2022/10/23 11:37:43;;;;;;;7.32;1.20;;;;;;;;;;5003250;28;20094;-88
2022/10/23 11:40:17;;;;;;;12.77;2.40;;;;;;;;;;5010165;28;20033;-83
2022/10/23 11:42:42;;;;;;;4.63;1.27;;;;;;;;;;5016827;28;20026;-84
2022/10/23 11:45:26;;;;;;;2.40;0.45;;;;;;;;;;4997139;28;20033;-88
2022/10/23 11:48:14;;;;;;;5.95;1.05;;;;;;;;;;4988822;28;20049;-86
2022/10/23 11:50:43;;;;;;;3.22;0.80;;;;;;;;;;5003598;28;20036;-85
2022/10/23 11:53:23;;;;;;;5.75;1.30;;;;;;;;;;5004944;28;20072;-85
2022/10/23 11:55:59;;;;;;;1.83;0.90;;;;;;;;;;5001339;28;20466;-87
2022/10/23 11:58:30;;;;;;;1.52;1.10;;;;;;;;;;5005442;28;20037;-85
2022/10/23 12:01:00;;;;;;;9.95;2.03;;;;;;;;;;5004461;28;20045;-85
2022/10/23 12:03:29;;;;;;;6.88;1.00;;;;;;;;;;5012299;28;20018;-86
2022/10/23 12:06:04;;;;;;;2.40;0.90;;;;;;;;;;5008277;28;20429;-83
2022/10/23 12:08:32;;;;;;;5.70;1.45;;;;;;;;;;5009330;28;20057;-82
2022/10/23 12:10:57;;;;;;;11.75;0.85;;;;;;;;;;5014029;28;20026;-83
2022/10/23 12:13:31;;;;;;;4.07;1.02;;;;;;;;;;5013143;28;20010;-85
2022/10/23 12:15:56;;;;;;;2.72;0.60;;;;;;;;;;5010679;28;20045;-84
2022/10/23 12:18:22;;;;;;;5.43;1.10;;;;;;;;;;5004285;28;20470;-82
2022/10/23 12:20:53;;;;;;;1.80;0.70;;;;;;;;;;5011917;28;20112;-84
2022/10/23 12:23:18;;;;;;;1.42;0.77;;;;;;;;;;4999251;28;20026;-86
2022/10/23 12:26:02;;;;;;;1.67;1.03;;;;;;;;;;5013743;28;20054;-83
2022/10/23 12:28:27;;;;;;;3.85;1.58;;;;;;;;;;4990774;28;20548;-87
2022/10/23 12:31:12;;;;;;;2.37;1.03;;;;;;;;;;4994389;28;20025;-85
2022/10/23 12:33:52;;;;;;;10.73;1.02;;;;;;;;;;4996386;28;20809;-86
2022/10/23 12:36:23;;;;;;;3.53;1.10;;;;;;;;;;5001997;28;20478;-85
2022/10/23 12:38:49;;;;;;;4.60;1.60;;;;;;;;;;4986910;28;20076;-84
2022/10/23 12:41:15;;;;;;;1.85;0.70;;;;;;;;;;4999508;28;20576;-85
2022/10/23 12:43:42;;;;;;;1.90;0.98;;;;;;;;;;5010006;28;20022;-88
2022/10/23 12:46:19;;;;;;;3.38;1.10;;;;;;;;;;4990573;28;20146;-87
2022/10/23 12:48:48;;;;;;;7.32;0.98;;;;;;;;;;4992873;28;20482;-84
2022/10/23 12:51:25;;;;;;;11.10;1.95;;;;;;;;;;4995917;28;20030;-88
2022/10/23 12:53:50;;;;;;;3.15;1.50;;;;;;;;;;4998788;28;20509;-88
2022/10/23 12:56:16;;;;;;;6.93;1.52;;;;;;;;;;5000651;28;20030;-85
2022/10/23 12:58:47;;;;;;;8.38;1.10;;;;;;;;;;4993255;28;20025;-84
2022/10/23 13:01:21;;;;;;;5.85;1.20;;;;;;;;;;4983253;28;20052;-84
2022/10/23 13:03:46;;;;;;;11.77;1.40;;;;;;;;;;4986785;28;20022;-85
2022/10/23 13:06:11;;;;;;;5.20;1.60;;;;;;;;;;4986720;28;20029;-86
2022/10/23 13:08:41;;;;;;;2.70;1.13;;;;;;;;;;4994319;28;20117;-86
2022/10/23 13:11:08;;;;;;;3.53;1.20;;;;;;;;;;5002592;28;20372;-83
2022/10/23 13:13:34;;;;;;;2.70;0.88;;;;;;;;;;4997503;28;20018;-87
2022/10/23 13:15:59;;;;;;;1.23;0.98;;;;;;;;;;4984992;28;20018;-87
2022/10/23 13:18:24;;;;;;;3.90;1.00;;;;;;;;;;4998091;28;20026;-85
2022/10/23 13:20:52;;;;;;;7.95;1.40;;;;;;;;;;4991207;28;20022;-84
2022/10/23 13:23:18;;;;;;;2.17;0.77;;;;;;;;;;4996165;28;20064;-89
2022/10/23 13:25:52;;;;;;;11.38;1.73;;;;;;;;;;4990736;28;20616;-85
2022/10/23 13:28:24;;;;;;;2.55;1.20;;;;;;;;;;4996285;28;20450;-86
2022/10/23 13:31:01;;;;;;;12.90;2.17;;;;;;;;;;4987274;28;20054;-85
2022/10/23 13:33:37;;;;;;;1.83;1.20;;;;;;;;;;4998330;28;20049;-82
2022/10/23 13:36:19;;;;;;;4.63;1.27;;;;;;;;;;4996512;28;20018;-90
2022/10/23 13:39:05;;;;;;;2.85;0.60;;;;;;;;;;5011168;28;20101;-85
2022/10/23 13:41:38;;;;;;;4.50;1.10;;;;;;;;;;5002343;28;20034;-88
2022/10/23 13:44:04;;;;;;;4.93;1.48;;;;;;;;;;4995165;28;20026;-87
2022/10/23 13:46:29;;;;;;;10.27;2.03;;;;;;;;;;4991044;28;20030;-84
2022/10/23 13:48:54;;;;;;;8.07;1.65;;;;;;;;;;4997885;28;20019;-88
2022/10/23 13:51:21;;;;;;;4.10;1.38;;;;;;;;;;4998577;28;20026;-85
2022/10/23 13:53:46;;;;;;;11.05;1.70;;;;;;;;;;5000312;28;20436;-85
2022/10/23 13:56:12;;;;;;;6.45;1.85;;;;;;;;;;5011648;28;20023;-89
2022/10/23 13:58:38;;;;;;;5.25;1.35;;;;;;;;;;4990650;28;20061;-87
2022/10/23 14:01:03;;;;;;;7.43;1.55;;;;;;;;;;4996733;28;20030;-86
2022/10/23 14:03:28;;;;;;;2.88;1.08;;;;;;;;;;4998246;28;20092;-85
2022/10/23 14:05:54;;;;;;;3.88;1.50;;;;;;;;;;5006494;28;20053;-86
2022/10/23 14:08:19;;;;;;;2.28;0.95;;;;;;;;;;4998801;28;20470;-84
2022/10/23 14:10:44;;;;;;;4.87;1.30;;;;;;;;;;4994244;28;20433;-86
2022/10/23 14:13:10;;;;;;;1.05;0.80;;;;;;;;;;4995636;28;20277;-85
2022/10/23 14:15:35;;;;;;;5.25;1.50;;;;;;;;;;4981691;28;20119;-87
2022/10/23 14:18:00;;;;;;;3.22;1.25;;;;;;;;;;4997299;28;20014;-87
2022/10/23 14:20:26;;;;;;;2.25;1.70;;;;;;;;;;4997081;28;20565;-86
2022/10/23 14:22:51;;;;;;;8.43;2.88;;;;;;;;;;4978647;28;20022;-84
2022/10/23 14:25:17;;;;;;;7.10;1.60;;;;;;;;;;4986539;28;20390;-86
2022/10/23 14:27:42;;;;;;;4.70;1.50;;;;;;;;;;4988842;28;20117;-86
2022/10/23 14:30:08;;;;;;;3.03;1.23;;;;;;;;;;4996409;28;20134;-88
2022/10/23 14:32:33;;;;;;;5.43;1.23;;;;;;;;;;5006770;28;20053;-89
2022/10/23 14:35:02;;;;;;;9.93;1.77;;;;;;;;;;5005191;28;20485;-85
2022/10/23 14:37:28;;;;;;;3.25;0.68;;;;;;;;;;5007309;28;20041;-87
2022/10/23 14:39:53;;;;;;;8.48;1.45;;;;;;;;;;5017018;28;20465;-84
2022/10/23 14:42:18;;;;;;;3.75;1.10;;;;;;;;;;5008429;28;20023;-85
2022/10/23 14:44:43;;;;;;;2.75;0.90;;;;;;;;;;5003747;28;20022;-85